Stratford, New Jersey
Current Conditions -  °F | °C
As of 11:54 PM on Tuesday 21 Oct 2014 (Local Time) from KVAY Reporting Station
Clear Clear  
Wind Chill: 51°   Ceiling: Unl
Heat Index: 51°   Visibility: 10mi
Dew Point: 49°   Wind: 3mph
Humidity: 92%   Direction: 360°N
Pressure: 29.88"   Gusts: NA
Location:  39.83°N, 75.01°W
Report Text: KVAY 220354Z AUTO 36003KT 10SM CLR 11/09 A2988 RMK AO2 LTG DSNT NW SLP116 T01060094
Loading
Personal Weather Stations






























Interactive Weather Map
Tropical Storm Tracking
New forecast layout! Learn more

10-Day Weather Forecast

Advertisements
Track Severe Weather on mobile